Time;durP1;ratioP1;P1;durP2;ratioP2;P2;SDS_P1;SDS_P2;PMS_P1;PMS_P2;Temp;Humidity;BMP_temperature;BMP_pressure;BME280_temperature;BME280_humidity;BME280_pressure;Samples;Min_cycle;Max_cycle;Signal;HPM_P1;HPM_P2
2022/05/22 00:02:35;;;;;;;8.30;2.70;;;;;;;12.28;91.80;100393.46;3354169;85;99216;-78
2022/05/22 00:07:38;;;;;;;9.13;3.40;;;;;;;12.29;91.86;100390.09;3329277;85;99148;-78
2022/05/22 00:12:41;;;;;;;13.17;3.77;;;;;;;12.26;91.73;100386.14;3308254;86;98683;-78
2022/05/22 00:17:44;;;;;;;6.03;2.97;;;;;;;12.24;91.77;100380.81;3342678;85;98858;-78
2022/05/22 00:22:46;;;;;;;7.65;2.50;;;;;;;12.20;91.40;100376.66;3354110;85;99317;-78
2022/05/22 00:27:47;;;;;;;6.15;2.60;;;;;;;12.18;91.05;100374.89;3353097;85;99223;-78
2022/05/22 00:32:48;;;;;;;7.87;2.67;;;;;;;12.14;91.12;100380.98;3327535;86;98877;-78
2022/05/22 00:37:50;;;;;;;7.03;2.47;;;;;;;12.13;90.54;100371.70;3333645;86;98957;-77
2022/05/22 00:42:52;;;;;;;6.90;2.87;;;;;;;12.11;90.62;100375.45;3376034;85;98610;-78
2022/05/22 00:47:54;;;;;;;7.30;3.10;;;;;;;12.09;90.36;100376.41;3358696;86;98608;-78
2022/05/22 00:52:58;;;;;;;7.67;3.20;;;;;;;12.04;90.92;100365.17;3336027;85;99106;-78
2022/05/22 00:58:08;;;;;;;6.83;2.98;;;;;;;11.98;90.86;100366.73;3314508;87;98968;-78
2022/05/22 01:03:27;;;;;;;9.35;3.10;;;;;;;11.91;90.73;100365.33;3307078;86;99561;-78
2022/05/22 01:08:29;;;;;;;6.50;2.80;;;;;;;11.86;90.94;100369.02;3343080;85;98844;-76
2022/05/22 01:13:34;;;;;;;9.38;2.90;;;;;;;11.80;90.44;100367.24;3336224;84;99249;-77
2022/05/22 01:18:47;;;;;;;7.03;3.00;;;;;;;11.73;90.41;100370.55;3311891;86;27847;-77
2022/05/22 01:23:50;;;;;;;8.87;3.40;;;;;;;11.67;90.46;100365.20;3312947;86;98849;-77
2022/05/22 01:28:51;;;;;;;7.03;2.70;;;;;;;11.55;90.75;100361.36;3315325;86;99394;-77
2022/05/22 01:33:56;;;;;;;10.13;2.98;;;;;;;11.46;90.30;100360.30;3354130;85;98942;-76
2022/05/22 01:38:56;;;;;;;10.23;2.90;;;;;;;11.37;90.61;100363.20;3299081;86;99122;-77
2022/05/22 01:43:57;;;;;;;7.78;3.10;;;;;;;11.28;90.38;100358.02;3332420;85;99051;-77
2022/05/22 01:48:59;;;;;;;9.30;2.87;;;;;;;11.20;90.96;100361.91;3358273;85;25821;-77
2022/05/22 01:54:07;;;;;;;6.93;3.00;;;;;;;11.14;90.73;100358.51;3327665;86;98844;-77
2022/05/22 01:59:09;;;;;;;7.55;2.62;;;;;;;11.10;90.71;100357.11;3349379;85;99132;-77
2022/05/22 02:04:11;;;;;;;12.07;3.58;;;;;;;11.05;91.02;100362.16;3310328;86;98920;-78
2022/05/22 02:09:12;;;;;;;7.97;3.17;;;;;;;10.93;91.31;100353.63;3319614;85;99094;-77
2022/05/22 02:14:14;;;;;;;8.87;3.20;;;;;;;10.85;91.29;100345.09;3323811;84;99069;-77
2022/05/22 02:19:15;;;;;;;8.53;2.60;;;;;;;10.65;91.73;100349.25;3347706;85;98852;-77
2022/05/22 02:24:17;;;;;;;10.53;3.00;;;;;;;10.65;91.73;100349.25;3345593;85;98660;-77
2022/05/22 02:29:18;;;;;;;9.10;3.63;;;;;;;10.56;91.81;100350.72;3337013;84;99199;-77
2022/05/22 02:34:19;;;;;;;8.07;2.87;;;;;;;10.45;92.24;100352.56;3331134;85;98973;-77
2022/05/22 02:39:21;;;;;;;8.50;2.77;;;;;;;10.36;91.80;100363.10;3326512;86;98893;-76
2022/05/22 02:44:22;;;;;;;6.10;2.77;;;;;;;10.24;92.28;100365.52;3332710;86;98953;-77
2022/05/22 02:49:24;;;;;;;7.67;2.97;;;;;;;10.21;91.86;100359.98;3315357;85;98822;-77
2022/05/22 02:54:25;;;;;;;11.60;3.30;;;;;;;10.13;92.11;100367.92;3355066;85;98541;-77
2022/05/22 02:59:26;;;;;;;7.20;2.80;;;;;;;10.05;92.58;100363.52;3317491;86;99358;-77
2022/05/22 03:04:28;;;;;;;8.13;2.73;;;;;;;9.97;92.55;100358.48;3334659;85;98669;-77
2022/05/22 03:09:30;;;;;;;11.93;4.00;;;;;;;9.92;92.47;100357.44;3319560;86;98898;-77
2022/05/22 03:14:32;;;;;;;8.53;3.40;;;;;;;9.92;93.33;100356.67;3343752;84;99154;-78
2022/05/22 03:19:33;;;;;;;9.50;3.87;;;;;;;9.89;94.50;100354.66;3343398;85;98826;-77
2022/05/22 03:24:35;;;;;;;9.30;3.40;;;;;;;9.87;94.61;100348.75;3354022;85;98233;-77
2022/05/22 03:29:37;;;;;;;8.10;3.80;;;;;;;9.86;94.73;100358.16;3323749;85;98658;-78
2022/05/22 03:34:39;;;;;;;9.57;3.00;;;;;;;9.86;94.92;100356.79;3311867;85;98625;-77
2022/05/22 03:39:41;;;;;;;10.17;3.73;;;;;;;9.88;95.03;100355.22;3330379;84;98509;-77
2022/05/22 03:44:42;;;;;;;12.55;3.37;;;;;;;9.87;95.91;100352.87;3319584;86;99074;-78
2022/05/22 03:49:44;;;;;;;10.60;3.75;;;;;;;9.88;95.89;100359.95;3349241;84;98735;-78
2022/05/22 03:54:45;;;;;;;14.87;3.60;;;;;;;9.88;96.20;100355.22;3320876;85;98551;-77
2022/05/22 03:59:47;;;;;;;8.33;3.43;;;;;;;9.92;96.86;100355.30;3345799;85;98962;-77
2022/05/22 04:04:48;;;;;;;8.77;3.00;;;;;;;9.96;97.76;100353.36;3293527;86;98609;-77
2022/05/22 04:09:50;;;;;;;10.00;3.43;;;;;;;10.01;97.40;100354.41;3346409;85;99097;-77
2022/05/22 04:14:54;;;;;;;8.00;3.00;;;;;;;10.09;97.34;100347.87;3349717;84;99545;-78
2022/05/22 04:19:56;;;;;;;6.37;2.63;;;;;;;10.17;97.75;100353.64;3337318;85;99097;-77
2022/05/22 04:25:12;;;;;;;12.20;4.78;;;;;;;10.27;97.20;100351.59;3327309;85;98430;-77
2022/05/22 04:30:18;;;;;;;10.13;3.10;;;;;;;10.33;96.94;100363.27;3326631;86;99181;-78
2022/05/22 04:35:20;;;;;;;8.80;2.70;;;;;;;10.40;97.22;100359.21;3329464;85;98948;-78
2022/05/22 04:40:21;;;;;;;8.00;2.83;;;;;;;10.47;96.77;100370.28;3351947;85;99010;-78
2022/05/22 04:45:23;;;;;;;11.17;2.83;;;;;;;10.57;97.13;100372.95;3319862;85;99134;-78
2022/05/22 04:50:25;;;;;;;10.75;2.90;;;;;;;10.66;96.97;100363.22;3325242;86;99376;-78
2022/05/22 04:55:27;;;;;;;9.05;3.27;;;;;;;10.83;97.14;100358.45;3324367;85;99118;-79
2022/05/22 05:00:29;;;;;;;8.37;3.03;;;;;;;10.96;96.87;100354.23;3337548;85;28577;-78
2022/05/22 05:05:30;;;;;;;13.97;3.70;;;;;;;11.13;96.53;100352.80;3301596;87;99018;-78
2022/05/22 05:10:32;;;;;;;9.20;3.12;;;;;;;11.22;95.99;100346.36;3330695;85;99373;-78
2022/05/22 05:15:34;;;;;;;7.57;2.73;;;;;;;11.43;95.95;100350.06;3333254;85;98911;-77
2022/05/22 05:20:37;;;;;;;8.70;2.97;;;;;;;11.57;95.50;100355.67;3344019;85;99349;-78
2022/05/22 05:25:39;;;;;;;6.73;2.87;;;;;;;11.69;95.74;100365.59;3302747;85;99472;-77
2022/05/22 05:30:42;;;;;;;8.13;2.90;;;;;;;11.86;95.08;100380.86;3301791;85;98789;-79
2022/05/22 05:35:47;;;;;;;9.43;2.93;;;;;;;12.04;94.46;100386.47;3325259;86;98791;-78
2022/05/22 05:40:49;;;;;;;10.73;3.13;;;;;;;12.26;94.54;100373.72;3332763;85;98949;-78
2022/05/22 05:45:51;;;;;;;7.00;3.00;;;;;;;12.43;93.66;100372.21;3306614;86;99094;-78
2022/05/22 05:50:55;;;;;;;8.40;2.37;;;;;;;12.63;93.20;100385.84;3309656;86;98931;-79
2022/05/22 05:55:55;;;;;;;6.70;2.30;;;;;;;12.87;92.50;100378.98;3331589;85;99639;-79
2022/05/22 06:00:57;;;;;;;9.17;2.20;;;;;;;13.07;91.43;100371.92;3337658;86;98698;-78
2022/05/22 06:05:58;;;;;;;11.10;2.93;;;;;;;13.34;90.62;100391.64;3324379;85;98759;-78
2022/05/22 06:11:00;;;;;;;7.12;2.50;;;;;;;13.51;90.33;100388.10;3327054;85;99341;-78
2022/05/22 06:16:05;;;;;;;7.83;3.37;;;;;;;13.68;88.73;100390.81;3315299;86;99279;-78
2022/05/22 06:21:19;;;;;;;6.47;2.45;;;;;;;13.85;88.99;100395.51;3282714;86;99361;-79
2022/05/22 06:26:20;;;;;;;7.45;2.58;;;;;;;14.00;88.13;100391.52;3373842;86;99336;-79
2022/05/22 06:31:24;;;;;;;7.03;2.95;;;;;;;14.21;87.87;100393.44;3343692;86;98939;-79
2022/05/22 06:36:25;;;;;;;9.35;3.08;;;;;;;14.42;87.75;100394.73;3291539;87;98706;-78
2022/05/22 06:41:27;;;;;;;8.38;3.08;;;;;;;14.58;86.75;100392.27;3338472;86;98700;-78
2022/05/22 06:46:33;;;;;;;12.00;3.45;;;;;;;14.80;86.00;100400.64;3319389;85;99215;-79
2022/05/22 06:51:34;;;;;;;9.93;4.15;;;;;;;14.94;85.72;100399.17;3335077;86;99092;-77
2022/05/22 06:56:35;;;;;;;12.20;3.40;;;;;;;15.04;84.94;100403.24;3332858;86;99371;-79
2022/05/22 07:01:38;;;;;;;6.87;3.07;;;;;;;15.09;84.00;100395.11;3328418;85;99144;-79
2022/05/22 07:06:39;;;;;;;8.15;3.60;;;;;;;15.17;83.91;100394.64;3337956;85;33480;-80
2022/05/22 07:11:39;;;;;;;8.35;3.50;;;;;;;15.30;83.49;100397.09;3323801;85;99309;-80
2022/05/22 07:16:41;;;;;;;9.73;3.90;;;;;;;15.40;82.51;100400.41;3352483;86;99008;-81
2022/05/22 07:21:42;;;;;;;9.50;3.90;;;;;;;15.62;82.49;100399.60;3323582;86;98954;-80
2022/05/22 07:26:44;;;;;;;7.93;2.97;;;;;;;15.84;81.46;100403.73;3333596;85;99242;-80
2022/05/22 07:31:45;;;;;;;9.48;3.10;;;;;;;16.01;81.65;100399.38;3330662;85;98961;-81
2022/05/22 07:36:45;;;;;;;5.23;2.60;;;;;;;16.19;80.24;100404.73;3307214;86;27742;-80
2022/05/22 07:41:46;;;;;;;7.92;3.05;;;;;;;16.26;79.73;100394.92;3351697;86;99175;-80
2022/05/22 07:46:48;;;;;;;5.35;2.80;;;;;;;16.38;79.58;100388.81;3326975;85;98765;-80
2022/05/22 07:51:49;;;;;;;7.22;2.60;;;;;;;16.59;79.30;100381.61;3356120;86;99380;-81
2022/05/22 07:56:50;;;;;;;5.70;2.45;;;;;;;16.83;77.86;100384.62;3325663;86;99370;-81
2022/05/22 08:01:51;;;;;;;7.00;3.47;;;;;;;17.00;77.07;100377.41;3329328;86;98842;-79
2022/05/22 08:06:52;;;;;;;8.05;2.22;;;;;;;17.12;76.32;100387.94;3301632;86;26794;-80
2022/05/22 08:11:52;;;;;;;7.92;2.20;;;;;;;17.32;75.99;100383.23;3346428;85;98803;-80
2022/05/22 08:16:54;;;;;;;6.53;1.93;;;;;;;17.73;75.78;100372.61;3323523;85;98750;-81
2022/05/22 08:21:55;;;;;;;6.28;2.25;;;;;;;18.25;75.17;100379.73;3324219;86;98973;-80
2022/05/22 08:26:56;;;;;;;4.97;1.87;;;;;;;18.71;72.47;100378.94;3333776;85;98852;-81
2022/05/22 08:31:57;;;;;;;4.33;1.40;;;;;;;19.07;71.77;100383.84;3333532;86;99096;-81
2022/05/22 08:36:58;;;;;;;7.37;2.23;;;;;;;19.72;71.33;100371.42;3335128;86;26082;-81
2022/05/22 08:41:59;;;;;;;6.33;2.00;;;;;;;20.49;68.91;100375.45;3342794;86;98786;-81
2022/05/22 08:47:07;;;;;;;4.63;1.87;;;;;;;20.92;65.73;100370.14;3338194;86;99208;-79
2022/05/22 08:52:17;;;;;;;3.77;1.70;;;;;;;21.70;65.63;100362.87;3311109;86;98868;-81
2022/05/22 09:03:15;;;;;;;4.67;2.12;;;;;;;22.76;62.58;100370.32;3346645;86;99264;-81
2022/05/22 09:08:44;;;;;;;4.67;1.60;;;;;;;23.23;57.39;100365.84;3345738;85;98941;-81
2022/05/22 09:14:02;;;;;;;5.03;1.80;;;;;;;23.33;58.87;100364.62;3320644;86;98917;-81
2022/05/22 09:19:36;;;;;;;6.60;1.90;;;;;;;24.09;56.27;100361.09;3359948;86;25951;-80
2022/05/22 09:25:07;;;;;;;4.75;1.82;;;;;;;24.43;54.67;100355.09;3327505;85;98960;-80
2022/05/22 09:30:35;;;;;;;6.37;1.92;;;;;;;24.68;54.51;100361.78;3190642;89;99276;-80
2022/05/22 09:36:10;;;;;;;8.35;1.98;;;;;;;25.14;53.06;100361.09;3309687;85;98840;-80
2022/05/22 09:41:38;;;;;;;8.73;1.70;;;;;;;25.22;52.01;100369.34;3333463;86;98831;-80
2022/05/22 09:47:01;;;;;;;4.30;1.85;;;;;;;24.88;49.86;100359.17;3330791;85;99415;-80
2022/05/22 09:52:29;;;;;;;7.45;1.95;;;;;;;24.45;50.65;100358.99;3322120;86;99249;-80
2022/05/22 09:57:53;;;;;;;6.25;2.00;;;;;;;23.96;49.04;100368.90;3335976;85;99404;-79
2022/05/22 10:03:15;;;;;;;4.30;1.60;;;;;;;23.31;50.94;100372.09;3327013;86;99159;-80
2022/05/22 10:08:51;;;;;;;5.85;1.77;;;;;;;22.75;51.12;100378.59;3330392;85;99299;-79
2022/05/22 10:14:00;;;;;;;4.53;1.70;;;;;;;22.08;50.99;100373.94;3325254;85;98986;-80
2022/05/22 10:19:22;;;;;;;5.83;1.95;;;;;;;21.85;52.77;100374.39;3341544;86;25891;-79
2022/05/22 10:24:40;;;;;;;3.52;1.37;;;;;;;21.46;52.00;100381.91;3321990;86;99123;-79
2022/05/22 10:30:08;;;;;;;4.37;1.60;;;;;;;21.17;52.66;100376.48;3324625;86;99192;-78
2022/05/22 10:35:21;;;;;;;4.78;1.65;;;;;;;20.79;53.35;100381.89;3273548;86;99004;-79
2022/05/22 10:40:25;;;;;;;3.85;1.52;;;;;;;20.46;54.17;100382.71;3336855;85;99350;-79
2022/05/22 10:45:38;;;;;;;4.53;1.62;;;;;;;20.32;54.75;100383.75;3343671;85;98823;-78
2022/05/22 10:51:11;;;;;;;4.57;1.73;;;;;;;19.84;54.56;100381.86;3320864;85;99311;-79
2022/05/22 10:56:21;;;;;;;2.62;1.57;;;;;;;19.54;55.53;100394.84;3312362;86;98852;-79
2022/05/22 11:01:26;;;;;;;6.17;1.42;;;;;;;19.30;56.26;100392.69;3300230;86;98885;-79
2022/05/22 11:06:39;;;;;;;4.17;1.62;;;;;;;19.30;57.17;100392.06;3310602;86;98803;-80
2022/05/22 11:11:40;;;;;;;4.80;1.90;;;;;;;19.25;56.96;100396.80;3318855;86;99156;-80
2022/05/22 11:16:44;;;;;;;3.77;1.63;;;;;;;19.25;57.05;100390.42;3333864;85;98938;-78
2022/05/22 11:22:30;;;;;;;5.12;1.87;;;;;;;19.34;57.77;100399.73;3313638;85;98895;-79
2022/05/22 11:28:10;;;;;;;5.03;1.87;;;;;;;19.38;57.57;100390.67;3324778;86;98808;-79
2022/05/22 11:33:43;;;;;;;4.83;2.37;;;;;;;19.51;57.45;100392.16;3284265;85;98996;-79
2022/05/22 11:39:35;;;;;;;5.27;1.93;;;;;;;19.54;57.18;100396.84;3304732;86;98849;-79
2022/05/22 11:45:05;;;;;;;3.35;1.67;;;;;;;19.71;58.02;100397.78;3318123;86;99250;-79
2022/05/22 11:50:31;;;;;;;3.77;1.80;;;;;;;19.66;57.41;100396.92;3323482;86;98931;-79
2022/05/22 11:56:19;;;;;;;4.83;1.67;;;;;;;19.67;57.31;100396.32;3318556;86;98401;-80
2022/05/22 12:01:38;;;;;;;5.07;1.87;;;;;;;19.67;56.82;100397.09;3330469;86;98959;-80
2022/05/22 12:07:10;;;;;;;4.87;1.72;;;;;;;19.57;57.29;100396.75;3347155;86;98810;-79
2022/05/22 12:12:35;;;;;;;7.10;2.30;;;;;;;19.63;57.73;100391.44;3312225;86;99096;-80
2022/05/22 12:17:58;;;;;;;4.20;1.95;;;;;;;19.88;58.70;100381.16;3315949;85;99114;-80
2022/05/22 12:23:31;;;;;;;4.33;1.80;;;;;;;19.90;57.56;100387.08;3323572;85;98932;-80
2022/05/22 12:29:02;;;;;;;3.75;2.22;;;;;;;19.97;57.26;100390.30;3334062;85;98840;-79
2022/05/22 12:34:12;;;;;;;6.37;2.13;;;;;;;19.95;56.71;100381.59;3333692;85;99019;-79
2022/05/22 12:39:16;;;;;;;8.10;1.87;;;;;;;19.88;57.06;100392.33;3315948;86;98837;-80
2022/05/22 12:44:19;;;;;;;4.53;2.20;;;;;;;20.01;56.97;100389.59;3326858;86;98850;-80
2022/05/22 12:49:30;;;;;;;6.28;1.77;;;;;;;19.89;56.32;100380.56;3288687;86;25998;-79
2022/05/22 12:54:39;;;;;;;6.72;2.17;;;;;;;20.01;57.63;100377.79;3329131;86;99243;-80
2022/05/22 13:00:02;;;;;;;4.90;1.85;;;;;;;20.23;57.95;100364.84;3320413;86;99282;-80
2022/05/22 13:05:18;;;;;;;5.70;2.10;;;;;;;20.37;56.48;100367.20;3303184;86;98930;-80
2022/05/22 13:10:34;;;;;;;4.78;2.20;;;;;;;20.47;57.04;100370.30;3336683;85;99486;-80
2022/05/22 13:15:39;;;;;;;5.53;2.50;;;;;;;20.58;56.87;100362.97;3321083;86;99200;-80
2022/05/22 13:20:48;;;;;;;2.98;1.12;;;;;;;20.70;54.52;100369.21;3323842;85;108274;-79
2022/05/22 13:25:53;;;;;;;4.67;1.57;;;;;;;20.67;54.41;100363.09;3400496;84;27209;-79
2022/05/22 13:31:15;;;;;;;1.92;1.57;;;;;;;20.75;53.56;100375.62;3324529;85;98760;-79
2022/05/22 13:36:27;;;;;;;2.33;1.50;;;;;;;20.59;53.14;100373.72;3346550;86;98804;-79
2022/05/22 13:41:42;;;;;;;2.37;1.30;;;;;;;20.36;52.86;100383.80;3332188;86;98814;-79
2022/05/22 13:47:34;;;;;;;4.62;1.70;;;;;;;20.12;52.91;100377.53;3341702;85;98966;-80
2022/05/22 13:52:43;;;;;;;2.67;1.20;;;;;;;19.97;53.55;100381.31;3327995;86;99354;-80
2022/05/22 13:58:11;;;;;;;5.47;1.45;;;;;;;20.02;54.30;100369.61;3332308;85;99313;-79
2022/05/22 14:03:29;;;;;;;2.83;1.27;;;;;;;20.37;54.48;100362.20;3306613;86;98986;-80
2022/05/22 14:08:34;;;;;;;7.00;1.62;;;;;;;20.54;54.32;100361.69;3326923;86;98813;-79
2022/05/22 14:13:36;;;;;;;3.03;1.50;;;;;;;20.64;54.34;100356.38;3326092;86;98535;-79
2022/05/22 14:18:37;;;;;;;3.62;1.50;;;;;;;20.78;54.48;100355.16;3335590;86;97899;-80
2022/05/22 14:29:11;;;;;;;2.15;1.40;;;;;;;20.94;53.73;100357.87;3341575;85;98848;-79
2022/05/22 14:34:22;;;;;;;3.37;1.25;;;;;;;20.94;53.44;100355.07;3332358;86;98801;-79
2022/05/22 14:39:23;;;;;;;4.25;1.52;;;;;;;20.86;53.12;100352.29;3329228;86;99393;-80
2022/05/22 14:44:32;;;;;;;4.80;1.80;;;;;;;20.81;53.13;100350.08;3335882;86;99078;-79
2022/05/22 14:49:38;;;;;;;2.52;1.37;;;;;;;20.91;53.28;100346.96;3328348;86;25997;-79
2022/05/22 14:54:59;;;;;;;4.33;1.67;;;;;;;20.97;53.07;100356.35;3335166;85;98735;-80
2022/05/22 15:00:24;;;;;;;3.67;1.47;;;;;;;20.89;53.37;100343.05;3327602;84;98741;-79
2022/05/22 15:05:36;;;;;;;2.12;1.40;;;;;;;20.83;52.47;100347.00;3331818;85;99129;-80
2022/05/22 15:10:39;;;;;;;3.20;0.90;;;;;;;20.64;52.93;100350.00;3331850;85;98944;-80
2022/05/22 15:15:40;;;;;;;2.08;0.80;;;;;;;20.52;52.03;100355.77;3320729;86;98837;-80
2022/05/22 15:20:41;;;;;;;0.93;0.70;;;;;;;20.32;51.91;100362.16;3349216;85;99371;-80
2022/05/22 15:25:49;;;;;;;3.43;1.10;;;;;;;20.18;51.88;100365.38;3343079;86;26343;-80
2022/05/22 15:31:08;;;;;;;1.37;0.70;;;;;;;20.13;52.41;100367.32;3348577;85;98865;-80
2022/05/22 15:36:21;;;;;;;1.50;0.85;;;;;;;20.16;52.73;100356.64;3321905;86;98558;-80
2022/05/22 15:41:36;;;;;;;2.15;1.05;;;;;;;20.22;52.68;100353.46;3330692;85;99274;-80
2022/05/22 15:46:50;;;;;;;2.23;1.17;;;;;;;20.10;52.80;100346.47;3321898;86;99269;-80
2022/05/22 15:52:07;;;;;;;4.08;1.22;;;;;;;20.04;52.65;100342.59;3302313;86;99046;-80
2022/05/22 15:57:08;;;;;;;3.90;1.30;;;;;;;19.94;53.00;100335.33;3344096;86;99286;-79
2022/05/22 16:02:23;;;;;;;2.90;1.17;;;;;;;19.90;53.14;100329.05;3330812;86;98856;-80
2022/05/22 16:07:24;;;;;;;2.80;1.27;;;;;;;19.80;53.26;100332.92;3322598;86;26746;-79
2022/05/22 16:12:25;;;;;;;2.10;1.30;;;;;;;19.84;53.98;100339.97;3347564;85;98913;-80
2022/05/22 16:17:28;;;;;;;4.10;1.23;;;;;;;19.68;53.88;100335.05;3324041;86;98690;-79
2022/05/22 16:22:29;;;;;;;3.40;1.52;;;;;;;19.50;54.12;100333.37;3340681;85;98968;-80
2022/05/22 16:27:30;;;;;;;5.03;1.63;;;;;;;19.32;54.43;100337.21;3325081;86;98824;-80
2022/05/22 16:32:31;;;;;;;4.63;1.57;;;;;;;19.21;54.67;100341.69;3340936;85;99075;-81
2022/05/22 16:37:33;;;;;;;3.87;1.47;;;;;;;19.10;55.20;100343.92;3347396;85;26723;-80
2022/05/22 16:42:35;;;;;;;3.20;1.70;;;;;;;18.97;55.16;100340.88;3337437;85;99074;-79
2022/05/22 16:53:04;;;;;;;4.83;1.72;;;;;;;18.57;56.45;100352.76;3314234;86;98942;-80
2022/05/22 16:58:18;;;;;;;3.40;1.30;;;;;;;18.42;56.92;100357.70;3333471;85;98852;-80
2022/05/22 17:03:24;;;;;;;3.45;1.40;;;;;;;18.24;57.11;100357.23;3331967;86;99057;-80
2022/05/22 17:08:48;;;;;;;3.33;1.07;;;;;;;18.15;57.49;100355.03;3343716;85;98856;-80
2022/05/22 17:13:57;;;;;;;2.90;1.30;;;;;;;17.97;57.56;100363.56;3320037;85;99046;-81
2022/05/22 17:19:00;;;;;;;2.97;1.17;;;;;;;17.81;58.10;100365.67;3353812;85;98851;-80
2022/05/22 17:24:03;;;;;;;1.10;0.80;;;;;;;17.68;57.95;100363.95;3327351;85;99077;-81
2022/05/22 17:29:09;;;;;;;1.85;1.02;;;;;;;17.58;58.05;100364.33;3328450;86;99215;-81
2022/05/22 17:34:11;;;;;;;2.27;1.15;;;;;;;17.43;58.26;100363.63;3323737;86;99029;-81
2022/05/22 17:39:12;;;;;;;3.83;1.60;;;;;;;17.32;58.46;100362.97;3325000;85;98062;-81
2022/05/22 17:44:14;;;;;;;2.22;1.20;;;;;;;17.11;58.97;100368.91;3296629;85;98839;-81
2022/05/22 17:49:16;;;;;;;2.87;1.23;;;;;;;16.92;59.49;100369.02;3312905;85;26156;-81
2022/05/22 17:54:18;;;;;;;4.20;2.02;;;;;;;16.74;60.22;100370.48;3344878;85;98739;-80
2022/05/22 17:59:19;;;;;;;2.77;1.37;;;;;;;16.55;60.61;100378.09;3338493;85;98895;-80
2022/05/22 18:04:21;;;;;;;5.70;1.70;;;;;;;16.40;61.44;100368.39;3330173;85;99644;-81
2022/05/22 18:09:25;;;;;;;6.30;2.13;;;;;;;16.20;62.10;100371.01;3335230;86;98954;-80
2022/05/22 18:19:45;;;;;;;3.62;1.80;;;;;;;15.86;63.44;100367.42;3333016;85;26042;-80
2022/05/22 18:30:09;;;;;;;6.83;2.10;;;;;;;15.56;64.48;100363.21;3236264;87;98743;-79
2022/05/22 18:35:20;;;;;;;7.05;1.92;;;;;;;15.36;65.02;100362.21;3242253;87;99264;-80
2022/05/22 18:40:22;;;;;;;6.30;2.37;;;;;;;15.20;65.85;100364.70;3339740;86;98890;-80
2022/05/22 18:45:37;;;;;;;5.53;2.23;;;;;;;14.98;66.61;100367.45;3326696;85;99394;-80
2022/05/22 18:50:38;;;;;;;6.07;2.63;;;;;;;14.79;67.07;100380.48;3325022;86;99130;-80
2022/05/22 18:55:41;;;;;;;8.70;3.30;;;;;;;14.60;67.69;100378.83;3331973;85;98162;-80
2022/05/22 19:00:42;;;;;;;7.73;3.07;;;;;;;14.41;68.76;100382.08;3349901;86;99320;-80
2022/05/22 19:05:44;;;;;;;9.20;3.27;;;;;;;14.24;69.38;100382.38;3340476;85;97920;-79
2022/05/22 19:10:49;;;;;;;7.10;2.80;;;;;;;14.08;69.65;100386.75;3323493;86;99429;-80
2022/05/22 19:15:51;;;;;;;9.83;3.73;;;;;;;13.92;70.23;100396.09;3338519;85;98910;-79
2022/05/22 19:20:53;;;;;;;5.97;3.00;;;;;;;13.74;70.59;100401.66;3329621;85;98884;-80
2022/05/22 19:25:58;;;;;;;6.53;3.07;;;;;;;13.60;71.20;100404.47;3324522;85;26065;-79
2022/05/22 19:31:01;;;;;;;8.10;3.27;;;;;;;13.43;71.76;100402.52;3337119;85;98884;-79
2022/05/22 19:36:05;;;;;;;9.00;3.57;;;;;;;13.26;72.50;100401.95;3310809;86;99895;-79
2022/05/22 19:46:37;;;;;;;7.30;3.13;;;;;;;12.99;73.17;100407.66;3338553;86;99367;-79
2022/05/22 19:51:38;;;;;;;6.50;3.37;;;;;;;12.71;73.74;100388.23;3327695;85;98919;-78
2022/05/22 20:01:59;;;;;;;11.70;5.40;;;;;;;12.50;75.44;100405.34;3332336;85;98545;-79
2022/05/22 20:07:01;;;;;;;9.70;4.60;;;;;;;12.38;75.20;100409.24;3359164;85;98852;-79
2022/05/22 20:12:03;;;;;;;9.17;4.53;;;;;;;12.29;76.29;100410.80;3308673;86;98781;-79
2022/05/22 20:17:05;;;;;;;9.87;4.33;;;;;;;12.14;76.44;100405.81;3338908;85;99193;-80
2022/05/22 20:22:06;;;;;;;8.85;4.47;;;;;;;12.04;76.55;100412.67;3305852;85;99049;-80
2022/05/22 20:27:08;;;;;;;10.97;4.97;;;;;;;11.93;77.34;100411.83;3331368;86;99322;-80
2022/05/22 20:32:10;;;;;;;9.68;4.75;;;;;;;11.85;77.63;100412.95;3335181;86;99244;-81
2022/05/22 20:37:10;;;;;;;9.03;5.07;;;;;;;11.81;77.59;100414.89;3318255;86;33382;-80
2022/05/22 20:42:14;;;;;;;10.47;4.50;;;;;;;11.75;78.86;100408.16;3316102;86;98718;-80
2022/05/22 20:47:14;;;;;;;9.38;4.55;;;;;;;11.69;78.89;100411.08;3334927;86;99102;-81
2022/05/22 20:52:16;;;;;;;9.73;5.40;;;;;;;11.67;78.91;100412.06;3351497;85;98729;-81
2022/05/22 20:57:18;;;;;;;11.90;5.37;;;;;;;11.65;79.55;100406.92;3339288;86;99329;-81
2022/05/22 21:02:19;;;;;;;8.15;4.37;;;;;;;11.59;80.49;100412.59;3332633;85;99561;-80
2022/05/22 21:07:31;;;;;;;9.87;4.10;;;;;;;11.54;80.72;100404.66;3352417;86;33207;-80
2022/05/22 21:12:34;;;;;;;7.97;4.00;;;;;;;11.49;81.24;100409.73;3345846;86;99522;-79
2022/05/22 21:17:41;;;;;;;8.03;3.60;;;;;;;11.44;81.41;100405.98;3334281;85;98735;-80
2022/05/22 21:22:43;;;;;;;9.28;3.55;;;;;;;11.35;82.27;100410.41;3342636;86;99348;-80
2022/05/22 21:33:04;;;;;;;7.40;3.07;;;;;;;11.10;81.91;100392.11;3306449;87;98805;-79
2022/05/22 21:38:06;;;;;;;5.33;2.93;;;;;;;10.96;81.84;100393.38;3341669;86;99289;-79
2022/05/22 21:43:11;;;;;;;5.57;2.80;;;;;;;10.96;81.84;100393.38;3324950;85;98792;-79
2022/05/22 21:48:14;;;;;;;6.40;3.23;;;;;;;11.03;82.05;100416.84;3322966;85;99031;-79
2022/05/22 21:53:15;;;;;;;6.97;3.45;;;;;;;10.95;82.73;100420.11;3340382;85;99251;-79
2022/05/22 21:58:17;;;;;;;7.03;3.60;;;;;;;10.87;83.21;100425.36;3335567;86;99425;-79
2022/05/22 22:03:18;;;;;;;8.77;3.57;;;;;;;10.81;83.65;100420.00;3346922;85;98940;-79
2022/05/22 22:08:19;;;;;;;7.40;3.27;;;;;;;10.73;83.57;100427.16;3331676;85;98890;-79
2022/05/22 22:13:20;;;;;;;9.10;4.37;;;;;;;10.62;83.81;100427.63;3335269;86;98848;-79
2022/05/22 22:18:22;;;;;;;6.50;3.57;;;;;;;10.50;84.30;100421.02;3332448;85;99212;-79
2022/05/22 22:23:24;;;;;;;8.33;4.23;;;;;;;10.41;84.42;100424.67;3329176;85;99229;-80
2022/05/22 22:28:26;;;;;;;11.30;4.40;;;;;;;10.27;85.41;100413.48;3334349;84;99424;-79
2022/05/22 22:33:28;;;;;;;8.67;3.70;;;;;;;10.15;84.94;100416.48;3327962;85;99154;-79
2022/05/22 22:38:29;;;;;;;9.13;4.83;;;;;;;10.07;85.76;100414.80;3329828;85;98789;-79
2022/05/22 22:43:31;;;;;;;8.77;4.70;;;;;;;9.99;87.54;100415.85;3307979;85;98899;-79
2022/05/22 22:48:32;;;;;;;8.97;5.37;;;;;;;9.90;87.62;100413.95;3338530;85;97678;-79
2022/05/22 22:58:39;;;;;;;8.60;4.20;;;;;;;9.77;88.08;100413.38;3301348;86;98951;-80
2022/05/22 23:03:40;;;;;;;8.93;4.60;;;;;;;9.74;87.21;100416.89;3342562;85;98557;-80
2022/05/22 23:08:43;;;;;;;10.40;4.83;;;;;;;9.73;87.30;100413.14;3320234;84;98868;-79
2022/05/22 23:13:47;;;;;;;9.10;5.23;;;;;;;9.68;87.05;100414.83;3332470;86;98421;-80
2022/05/22 23:18:48;;;;;;;10.20;4.92;;;;;;;9.63;87.93;100413.20;3339963;85;98760;-80
2022/05/22 23:23:49;;;;;;;9.48;5.08;;;;;;;9.55;87.50;100416.98;3307527;85;98993;-80
2022/05/22 23:28:51;;;;;;;8.03;4.73;;;;;;;9.50;87.26;100409.09;3343011;85;98975;-79
2022/05/22 23:33:53;;;;;;;9.30;4.97;;;;;;;9.46;87.26;100417.86;3343883;85;99125;-79
2022/05/22 23:44:17;;;;;;;9.10;4.05;;;;;;;9.34;87.30;100414.52;3334446;86;99021;-80
2022/05/22 23:49:21;;;;;;;9.87;4.60;;;;;;;9.27;87.01;100406.17;3352046;86;26098;-80
2022/05/22 23:54:43;;;;;;;8.43;4.27;;;;;;;9.20;87.44;100399.17;3307519;85;98987;-79
2022/05/22 23:59:46;;;;;;;7.00;3.40;;;;;;;9.10;87.61;100401.20;3350013;84;98728;-80
